sensor_id;sensor_type;location;lat;lon;timestamp;P1;P2;P0
12542;PMS3003;6337;49.556;25.594;2022-09-12T00:01:59;4.93;4.43;
12542;PMS3003;6337;49.556;25.594;2022-09-12T00:04:26;4.13;3.07;
12542;PMS3003;6337;49.556;25.594;2022-09-12T00:06:54;5.30;4.43;
12542;PMS3003;6337;49.556;25.594;2022-09-12T00:09:22;3.90;3.50;
12542;PMS3003;6337;49.556;25.594;2022-09-12T00:11:49;3.93;3.53;
12542;PMS3003;6337;49.556;25.594;2022-09-12T00:14:17;4.60;3.90;
12542;PMS3003;6337;49.556;25.594;2022-09-12T00:16:45;6.60;3.40;
12542;PMS3003;6337;49.556;25.594;2022-09-12T00:19:12;5.03;3.60;
12542;PMS3003;6337;49.556;25.594;2022-09-12T00:21:40;3.03;2.73;
12542;PMS3003;6337;49.556;25.594;2022-09-12T00:24:07;4.57;3.77;
12542;PMS3003;6337;49.556;25.594;2022-09-12T00:26:36;8.37;4.03;
12542;PMS3003;6337;49.556;25.594;2022-09-12T00:29:04;4.10;3.70;
12542;PMS3003;6337;49.556;25.594;2022-09-12T00:31:31;3.33;3.03;
12542;PMS3003;6337;49.556;25.594;2022-09-12T00:33:58;3.67;3.37;
12542;PMS3003;6337;49.556;25.594;2022-09-12T00:36:26;6.27;2.90;
12542;PMS3003;6337;49.556;25.594;2022-09-12T00:38:54;3.50;3.20;
12542;PMS3003;6337;49.556;25.594;2022-09-12T00:41:22;3.73;3.30;
12542;PMS3003;6337;49.556;25.594;2022-09-12T00:43:53;3.07;2.83;
12542;PMS3003;6337;49.556;25.594;2022-09-12T00:46:26;7.40;2.70;
12542;PMS3003;6337;49.556;25.594;2022-09-12T00:49:00;3.80;2.33;
12542;PMS3003;6337;49.556;25.594;2022-09-12T00:51:30;5.47;2.33;
12542;PMS3003;6337;49.556;25.594;2022-09-12T00:53:58;4.53;4.17;
12542;PMS3003;6337;49.556;25.594;2022-09-12T00:56:27;3.10;2.90;
12542;PMS3003;6337;49.556;25.594;2022-09-12T00:58:56;3.93;2.70;
12542;PMS3003;6337;49.556;25.594;2022-09-12T01:01:26;3.00;2.80;
12542;PMS3003;6337;49.556;25.594;2022-09-12T01:03:53;2.70;2.60;
12542;PMS3003;6337;49.556;25.594;2022-09-12T01:06:21;2.83;2.70;
12542;PMS3003;6337;49.556;25.594;2022-09-12T01:08:51;2.63;2.40;
12542;PMS3003;6337;49.556;25.594;2022-09-12T01:11:20;5.43;2.97;
12542;PMS3003;6337;49.556;25.594;2022-09-12T01:13:48;2.67;2.47;
12542;PMS3003;6337;49.556;25.594;2022-09-12T01:16:18;4.80;3.13;
12542;PMS3003;6337;49.556;25.594;2022-09-12T01:18:50;3.20;2.90;
12542;PMS3003;6337;49.556;25.594;2022-09-12T01:21:23;4.80;3.57;
12542;PMS3003;6337;49.556;25.594;2022-09-12T01:27:26;4.10;3.50;
12542;PMS3003;6337;49.556;25.594;2022-09-12T01:30:24;5.30;3.33;
12542;PMS3003;6337;49.556;25.594;2022-09-12T01:33:23;4.20;3.80;
12542;PMS3003;6337;49.556;25.594;2022-09-12T01:36:14;3.60;3.30;
12542;PMS3003;6337;49.556;25.594;2022-09-12T01:38:51;6.77;3.90;
12542;PMS3003;6337;49.556;25.594;2022-09-12T01:41:24;5.87;4.10;
12542;PMS3003;6337;49.556;25.594;2022-09-12T01:43:56;2.90;2.70;
12542;PMS3003;6337;49.556;25.594;2022-09-12T01:46:31;4.80;3.57;
12542;PMS3003;6337;49.556;25.594;2022-09-12T01:49:07;4.27;3.87;
12542;PMS3003;6337;49.556;25.594;2022-09-12T01:51:42;5.90;3.60;
12542;PMS3003;6337;49.556;25.594;2022-09-12T01:54:14;3.63;3.33;
12542;PMS3003;6337;49.556;25.594;2022-09-12T01:56:44;3.57;3.27;
12542;PMS3003;6337;49.556;25.594;2022-09-12T01:59:14;4.70;2.87;
12542;PMS3003;6337;49.556;25.594;2022-09-12T02:01:46;7.50;3.20;
12542;PMS3003;6337;49.556;25.594;2022-09-12T02:04:17;4.70;3.50;
12542;PMS3003;6337;49.556;25.594;2022-09-12T02:06:47;3.90;3.50;
12542;PMS3003;6337;49.556;25.594;2022-09-12T02:09:16;4.67;2.60;
12542;PMS3003;6337;49.556;25.594;2022-09-12T02:11:48;3.87;3.30;
12542;PMS3003;6337;49.556;25.594;2022-09-12T02:14:17;4.50;3.60;
12542;PMS3003;6337;49.556;25.594;2022-09-12T02:16:50;4.57;4.17;
12542;PMS3003;6337;49.556;25.594;2022-09-12T02:19:22;3.40;3.10;
12542;PMS3003;6337;49.556;25.594;2022-09-12T02:21:52;3.00;2.70;
12542;PMS3003;6337;49.556;25.594;2022-09-12T02:24:24;4.07;3.37;
12542;PMS3003;6337;49.556;25.594;2022-09-12T02:26:54;7.50;4.40;
12542;PMS3003;6337;49.556;25.594;2022-09-12T02:29:25;4.13;3.73;
12542;PMS3003;6337;49.556;25.594;2022-09-12T02:31:56;4.30;3.73;
12542;PMS3003;6337;49.556;25.594;2022-09-12T02:34:26;6.53;5.70;
12542;PMS3003;6337;49.556;25.594;2022-09-12T02:37:02;4.47;4.07;
12542;PMS3003;6337;49.556;25.594;2022-09-12T02:39:32;6.70;5.23;
12542;PMS3003;6337;49.556;25.594;2022-09-12T02:42:01;5.63;4.67;
12542;PMS3003;6337;49.556;25.594;2022-09-12T02:44:31;7.23;4.97;
12542;PMS3003;6337;49.556;25.594;2022-09-12T02:47:02;8.27;5.23;
12542;PMS3003;6337;49.556;25.594;2022-09-12T02:49:32;8.30;5.20;
12542;PMS3003;6337;49.556;25.594;2022-09-12T02:51:59;11.07;5.93;
12542;PMS3003;6337;49.556;25.594;2022-09-12T02:54:27;5.20;4.70;
12542;PMS3003;6337;49.556;25.594;2022-09-12T02:56:55;3.93;3.63;
12542;PMS3003;6337;49.556;25.594;2022-09-12T02:59:22;5.03;4.57;
12542;PMS3003;6337;49.556;25.594;2022-09-12T03:02:05;10.13;4.87;
12542;PMS3003;6337;49.556;25.594;2022-09-12T03:04:47;4.90;4.50;
12542;PMS3003;6337;49.556;25.594;2022-09-12T03:07:41;4.70;4.13;
12542;PMS3003;6337;49.556;25.594;2022-09-12T03:10:19;6.10;3.40;
12542;PMS3003;6337;49.556;25.594;2022-09-12T03:12:52;3.70;3.30;
12542;PMS3003;6337;49.556;25.594;2022-09-12T03:15:27;4.33;3.63;
12542;PMS3003;6337;49.556;25.594;2022-09-12T03:20:52;4.03;3.70;
12542;PMS3003;6337;49.556;25.594;2022-09-12T03:23:28;5.07;4.27;
12542;PMS3003;6337;49.556;25.594;2022-09-12T03:26:00;3.30;3.03;
12542;PMS3003;6337;49.556;25.594;2022-09-12T03:28:29;4.23;3.93;
12542;PMS3003;6337;49.556;25.594;2022-09-12T03:30:57;4.70;3.37;
12542;PMS3003;6337;49.556;25.594;2022-09-12T03:33:25;4.87;3.93;
12542;PMS3003;6337;49.556;25.594;2022-09-12T03:35:53;5.30;3.87;
12542;PMS3003;6337;49.556;25.594;2022-09-12T03:38:21;4.60;3.23;
12542;PMS3003;6337;49.556;25.594;2022-09-12T03:40:48;6.53;3.30;
12542;PMS3003;6337;49.556;25.594;2022-09-12T03:43:19;4.73;3.10;
12542;PMS3003;6337;49.556;25.594;2022-09-12T03:45:48;3.13;2.93;
12542;PMS3003;6337;49.556;25.594;2022-09-12T03:48:16;7.50;3.03;
12542;PMS3003;6337;49.556;25.594;2022-09-12T03:50:45;3.03;2.77;
12542;PMS3003;6337;49.556;25.594;2022-09-12T03:53:12;3.10;2.90;
12542;PMS3003;6337;49.556;25.594;2022-09-12T03:55:40;3.20;2.90;
12542;PMS3003;6337;49.556;25.594;2022-09-12T03:58:07;3.20;3.00;
12542;PMS3003;6337;49.556;25.594;2022-09-12T04:00:34;3.60;3.30;
12542;PMS3003;6337;49.556;25.594;2022-09-12T04:03:02;9.20;3.40;
12542;PMS3003;6337;49.556;25.594;2022-09-12T04:05:29;3.93;3.27;
12542;PMS3003;6337;49.556;25.594;2022-09-12T04:07:58;6.30;3.33;
12542;PMS3003;6337;49.556;25.594;2022-09-12T04:10:26;3.00;2.80;
12542;PMS3003;6337;49.556;25.594;2022-09-12T04:12:53;3.00;2.70;
12542;PMS3003;6337;49.556;25.594;2022-09-12T04:15:21;6.40;3.03;
12542;PMS3003;6337;49.556;25.594;2022-09-12T04:18:00;2.37;2.17;
12542;PMS3003;6337;49.556;25.594;2022-09-12T04:20:27;3.27;3.07;
12542;PMS3003;6337;49.556;25.594;2022-09-12T04:22:55;2.30;2.20;
12542;PMS3003;6337;49.556;25.594;2022-09-12T04:25:24;3.17;2.10;
12542;PMS3003;6337;49.556;25.594;2022-09-12T04:27:52;3.60;2.33;
12542;PMS3003;6337;49.556;25.594;2022-09-12T04:30:19;5.27;2.40;
12542;PMS3003;6337;49.556;25.594;2022-09-12T04:32:47;3.70;3.40;
12542;PMS3003;6337;49.556;25.594;2022-09-12T04:35:15;2.27;2.17;
12542;PMS3003;6337;49.556;25.594;2022-09-12T04:37:43;2.50;2.30;
12542;PMS3003;6337;49.556;25.594;2022-09-12T04:40:10;4.17;2.27;
12542;PMS3003;6337;49.556;25.594;2022-09-12T04:42:39;2.60;2.40;
12542;PMS3003;6337;49.556;25.594;2022-09-12T04:45:06;2.03;1.93;
12542;PMS3003;6337;49.556;25.594;2022-09-12T04:47:35;3.20;2.20;
12542;PMS3003;6337;49.556;25.594;2022-09-12T04:50:03;2.33;2.00;
12542;PMS3003;6337;49.556;25.594;2022-09-12T04:52:30;3.83;3.50;
12542;PMS3003;6337;49.556;25.594;2022-09-12T04:54:58;2.17;2.07;
12542;PMS3003;6337;49.556;25.594;2022-09-12T04:57:25;2.20;2.10;
12542;PMS3003;6337;49.556;25.594;2022-09-12T04:59:54;1.83;1.73;
12542;PMS3003;6337;49.556;25.594;2022-09-12T05:02:22;2.10;1.90;
12542;PMS3003;6337;49.556;25.594;2022-09-12T05:04:50;1.97;1.83;
12542;PMS3003;6337;49.556;25.594;2022-09-12T05:07:18;2.87;2.67;
12542;PMS3003;6337;49.556;25.594;2022-09-12T05:09:46;2.20;2.00;
12542;PMS3003;6337;49.556;25.594;2022-09-12T05:12:14;2.90;2.00;
12542;PMS3003;6337;49.556;25.594;2022-09-12T05:14:41;1.90;1.80;
12542;PMS3003;6337;49.556;25.594;2022-09-12T05:17:10;2.10;1.77;
12542;PMS3003;6337;49.556;25.594;2022-09-12T05:19:38;3.10;2.30;
12542;PMS3003;6337;49.556;25.594;2022-09-12T05:22:06;2.23;2.03;
12542;PMS3003;6337;49.556;25.594;2022-09-12T05:24:33;2.57;2.37;
12542;PMS3003;6337;49.556;25.594;2022-09-12T05:27:04;2.67;2.57;
12542;PMS3003;6337;49.556;25.594;2022-09-12T05:29:33;2.07;1.97;
12542;PMS3003;6337;49.556;25.594;2022-09-12T05:32:00;2.20;2.00;
12542;PMS3003;6337;49.556;25.594;2022-09-12T05:34:29;1.90;1.80;
12542;PMS3003;6337;49.556;25.594;2022-09-12T05:36:57;1.77;1.67;
12542;PMS3003;6337;49.556;25.594;2022-09-12T05:39:24;2.07;1.97;
12542;PMS3003;6337;49.556;25.594;2022-09-12T05:41:51;1.70;1.60;
12542;PMS3003;6337;49.556;25.594;2022-09-12T05:44:18;2.03;1.70;
12542;PMS3003;6337;49.556;25.594;2022-09-12T05:46:45;2.27;2.07;
12542;PMS3003;6337;49.556;25.594;2022-09-12T05:49:15;2.50;1.90;
12542;PMS3003;6337;49.556;25.594;2022-09-12T05:51:44;1.50;1.50;
12542;PMS3003;6337;49.556;25.594;2022-09-12T05:54:12;1.87;1.77;
12542;PMS3003;6337;49.556;25.594;2022-09-12T05:56:41;2.80;1.77;
12542;PMS3003;6337;49.556;25.594;2022-09-12T05:59:10;2.10;1.90;
12542;PMS3003;6337;49.556;25.594;2022-09-12T06:01:38;1.50;1.43;
12542;PMS3003;6337;49.556;25.594;2022-09-12T06:04:05;2.83;2.50;
12542;PMS3003;6337;49.556;25.594;2022-09-12T06:06:35;2.70;2.50;
12542;PMS3003;6337;49.556;25.594;2022-09-12T06:09:07;2.60;2.10;
12542;PMS3003;6337;49.556;25.594;2022-09-12T06:11:35;5.37;2.40;
12542;PMS3003;6337;49.556;25.594;2022-09-12T06:14:05;2.33;2.23;
12542;PMS3003;6337;49.556;25.594;2022-09-12T06:16:33;2.73;2.53;
12542;PMS3003;6337;49.556;25.594;2022-09-12T06:19:02;2.67;2.47;
12542;PMS3003;6337;49.556;25.594;2022-09-12T06:21:30;2.90;2.70;
12542;PMS3003;6337;49.556;25.594;2022-09-12T06:23:58;2.40;2.20;
12542;PMS3003;6337;49.556;25.594;2022-09-12T06:26:27;2.30;2.10;
12542;PMS3003;6337;49.556;25.594;2022-09-12T06:28:58;1.70;1.60;
12542;PMS3003;6337;49.556;25.594;2022-09-12T06:31:27;1.97;1.87;
12542;PMS3003;6337;49.556;25.594;2022-09-12T06:33:55;3.67;2.77;
12542;PMS3003;6337;49.556;25.594;2022-09-12T06:36:25;2.50;2.40;
12542;PMS3003;6337;49.556;25.594;2022-09-12T06:38:55;1.67;1.57;
12542;PMS3003;6337;49.556;25.594;2022-09-12T06:41:24;2.13;1.83;
12542;PMS3003;6337;49.556;25.594;2022-09-12T06:43:56;2.73;2.50;
12542;PMS3003;6337;49.556;25.594;2022-09-12T06:46:24;2.87;2.40;
12542;PMS3003;6337;49.556;25.594;2022-09-12T06:48:54;1.87;1.77;
12542;PMS3003;6337;49.556;25.594;2022-09-12T06:51:23;2.00;1.90;
12542;PMS3003;6337;49.556;25.594;2022-09-12T06:53:50;2.30;2.20;
12542;PMS3003;6337;49.556;25.594;2022-09-12T06:56:20;6.67;2.07;
12542;PMS3003;6337;49.556;25.594;2022-09-12T06:58:48;2.40;2.20;
12542;PMS3003;6337;49.556;25.594;2022-09-12T07:01:18;1.87;1.77;
12542;PMS3003;6337;49.556;25.594;2022-09-12T07:03:47;1.77;1.67;
12542;PMS3003;6337;49.556;25.594;2022-09-12T07:06:15;2.63;2.43;
12542;PMS3003;6337;49.556;25.594;2022-09-12T07:08:45;1.90;1.80;
12542;PMS3003;6337;49.556;25.594;2022-09-12T07:11:13;1.60;1.50;
12542;PMS3003;6337;49.556;25.594;2022-09-12T07:13:43;1.60;1.50;
12542;PMS3003;6337;49.556;25.594;2022-09-12T07:16:11;2.27;2.10;
12542;PMS3003;6337;49.556;25.594;2022-09-12T07:18:41;2.17;1.90;
12542;PMS3003;6337;49.556;25.594;2022-09-12T07:21:10;2.60;1.67;
12542;PMS3003;6337;49.556;25.594;2022-09-12T07:23:43;1.90;1.57;
12542;PMS3003;6337;49.556;25.594;2022-09-12T07:26:12;2.50;2.30;
12542;PMS3003;6337;49.556;25.594;2022-09-12T07:28:41;3.50;2.00;
12542;PMS3003;6337;49.556;25.594;2022-09-12T07:31:09;2.70;2.07;
12542;PMS3003;6337;49.556;25.594;2022-09-12T07:33:38;2.57;2.10;
12542;PMS3003;6337;49.556;25.594;2022-09-12T07:36:09;1.70;1.60;
12542;PMS3003;6337;49.556;25.594;2022-09-12T07:38:38;1.67;1.57;
12542;PMS3003;6337;49.556;25.594;2022-09-12T07:41:11;1.27;1.17;
12542;PMS3003;6337;49.556;25.594;2022-09-12T07:43:43;1.63;1.53;
12542;PMS3003;6337;49.556;25.594;2022-09-12T07:46:11;1.73;1.63;
12542;PMS3003;6337;49.556;25.594;2022-09-12T07:48:39;1.60;1.50;
12542;PMS3003;6337;49.556;25.594;2022-09-12T07:51:09;3.33;1.53;
12542;PMS3003;6337;49.556;25.594;2022-09-12T07:53:43;1.90;1.80;
12542;PMS3003;6337;49.556;25.594;2022-09-12T07:56:10;1.77;1.67;
12542;PMS3003;6337;49.556;25.594;2022-09-12T07:58:39;1.70;1.60;
12542;PMS3003;6337;49.556;25.594;2022-09-12T08:01:09;2.07;1.93;
12542;PMS3003;6337;49.556;25.594;2022-09-12T08:03:37;1.80;1.70;
12542;PMS3003;6337;49.556;25.594;2022-09-12T08:06:05;1.63;1.53;
12542;PMS3003;6337;49.556;25.594;2022-09-12T08:08:36;1.90;1.80;
12542;PMS3003;6337;49.556;25.594;2022-09-12T08:11:04;1.23;1.23;
12542;PMS3003;6337;49.556;25.594;2022-09-12T08:13:35;1.70;1.60;
12542;PMS3003;6337;49.556;25.594;2022-09-12T08:16:04;3.03;2.10;
12542;PMS3003;6337;49.556;25.594;2022-09-12T08:18:33;2.67;2.47;
12542;PMS3003;6337;49.556;25.594;2022-09-12T08:21:03;3.50;2.43;
12542;PMS3003;6337;49.556;25.594;2022-09-12T08:23:33;2.73;1.77;
12542;PMS3003;6337;49.556;25.594;2022-09-12T08:26:02;4.03;3.60;
12542;PMS3003;6337;49.556;25.594;2022-09-12T08:28:30;2.10;1.83;
12542;PMS3003;6337;49.556;25.594;2022-09-12T08:30:59;1.70;1.60;
12542;PMS3003;6337;49.556;25.594;2022-09-12T08:33:27;1.70;1.60;
12542;PMS3003;6337;49.556;25.594;2022-09-12T08:36:01;1.97;1.87;
12542;PMS3003;6337;49.556;25.594;2022-09-12T08:38:30;1.70;1.37;
12542;PMS3003;6337;49.556;25.594;2022-09-12T08:41:00;1.70;1.40;
12542;PMS3003;6337;49.556;25.594;2022-09-12T08:43:36;1.20;1.20;
12542;PMS3003;6337;49.556;25.594;2022-09-12T08:46:27;3.90;1.63;
12542;PMS3003;6337;49.556;25.594;2022-09-12T08:49:00;1.70;1.60;
12542;PMS3003;6337;49.556;25.594;2022-09-12T08:51:29;1.47;1.33;
12542;PMS3003;6337;49.556;25.594;2022-09-12T08:53:58;4.87;2.00;
12542;PMS3003;6337;49.556;25.594;2022-09-12T08:56:30;2.63;1.10;
12542;PMS3003;6337;49.556;25.594;2022-09-12T08:59:04;4.80;1.33;
12542;PMS3003;6337;49.556;25.594;2022-09-12T09:01:34;1.13;1.10;
12542;PMS3003;6337;49.556;25.594;2022-09-12T09:04:13;1.67;1.57;
12542;PMS3003;6337;49.556;25.594;2022-09-12T09:09:36;1.93;1.83;
12542;PMS3003;6337;49.556;25.594;2022-09-12T09:12:14;1.30;1.20;
12542;PMS3003;6337;49.556;25.594;2022-09-12T09:14:48;1.23;1.23;
12542;PMS3003;6337;49.556;25.594;2022-09-12T09:17:26;1.20;1.10;
12542;PMS3003;6337;49.556;25.594;2022-09-12T09:20:00;2.40;1.20;
12542;PMS3003;6337;49.556;25.594;2022-09-12T09:22:40;2.80;1.80;
12542;PMS3003;6337;49.556;25.594;2022-09-12T09:25:22;1.73;1.63;
12542;PMS3003;6337;49.556;25.594;2022-09-12T09:27:58;1.70;1.60;
12542;PMS3003;6337;49.556;25.594;2022-09-12T09:30:27;1.37;1.27;
12542;PMS3003;6337;49.556;25.594;2022-09-12T09:32:57;1.33;1.23;
12542;PMS3003;6337;49.556;25.594;2022-09-12T09:35:28;1.30;1.23;
12542;PMS3003;6337;49.556;25.594;2022-09-12T09:38:06;1.90;1.77;
12542;PMS3003;6337;49.556;25.594;2022-09-12T09:40:43;1.43;1.37;
12542;PMS3003;6337;49.556;25.594;2022-09-12T09:43:18;1.80;1.70;
12542;PMS3003;6337;49.556;25.594;2022-09-12T09:45:48;1.97;1.70;
12542;PMS3003;6337;49.556;25.594;2022-09-12T09:48:16;1.67;1.57;
12542;PMS3003;6337;49.556;25.594;2022-09-12T09:50:45;1.60;1.60;
12542;PMS3003;6337;49.556;25.594;2022-09-12T09:53:20;1.80;1.70;
12542;PMS3003;6337;49.556;25.594;2022-09-12T09:55:54;1.33;1.23;
12542;PMS3003;6337;49.556;25.594;2022-09-12T09:58:31;0.90;0.90;
12542;PMS3003;6337;49.556;25.594;2022-09-12T10:00:59;1.30;1.20;
12542;PMS3003;6337;49.556;25.594;2022-09-12T10:03:31;1.13;1.13;
12542;PMS3003;6337;49.556;25.594;2022-09-12T10:06:00;1.00;1.00;
12542;PMS3003;6337;49.556;25.594;2022-09-12T10:08:29;1.63;1.53;
12542;PMS3003;6337;49.556;25.594;2022-09-12T10:10:58;2.37;2.20;
12542;PMS3003;6337;49.556;25.594;2022-09-12T10:16:23;1.10;1.10;
12542;PMS3003;6337;49.556;25.594;2022-09-12T10:18:52;0.97;0.97;
12542;PMS3003;6337;49.556;25.594;2022-09-12T10:21:21;3.50;3.17;
12542;PMS3003;6337;49.556;25.594;2022-09-12T10:23:57;1.63;1.53;
12542;PMS3003;6337;49.556;25.594;2022-09-12T10:26:30;2.70;1.00;
12542;PMS3003;6337;49.556;25.594;2022-09-12T10:29:03;0.80;0.80;
12542;PMS3003;6337;49.556;25.594;2022-09-12T10:31:40;2.03;1.93;
12542;PMS3003;6337;49.556;25.594;2022-09-12T10:34:18;1.00;0.97;
12542;PMS3003;6337;49.556;25.594;2022-09-12T10:36:47;0.70;0.70;
12542;PMS3003;6337;49.556;25.594;2022-09-12T10:39:16;0.80;0.80;
12542;PMS3003;6337;49.556;25.594;2022-09-12T10:41:44;2.27;0.83;
12542;PMS3003;6337;49.556;25.594;2022-09-12T10:44:15;0.80;0.80;
12542;PMS3003;6337;49.556;25.594;2022-09-12T10:46:43;0.80;0.80;
12542;PMS3003;6337;49.556;25.594;2022-09-12T10:49:12;0.80;0.80;
12542;PMS3003;6337;49.556;25.594;2022-09-12T10:51:46;0.90;0.90;
12542;PMS3003;6337;49.556;25.594;2022-09-12T10:54:15;0.97;0.97;
12542;PMS3003;6337;49.556;25.594;2022-09-12T10:56:47;1.40;1.30;
12542;PMS3003;6337;49.556;25.594;2022-09-12T10:59:53;0.70;0.70;
12542;PMS3003;6337;49.556;25.594;2022-09-12T11:02:32;1.00;1.00;
12542;PMS3003;6337;49.556;25.594;2022-09-12T11:05:08;0.80;0.80;
12542;PMS3003;6337;49.556;25.594;2022-09-12T11:07:40;0.70;0.70;
12542;PMS3003;6337;49.556;25.594;2022-09-12T11:10:14;0.70;0.70;
12542;PMS3003;6337;49.556;25.594;2022-09-12T11:12:47;0.90;0.90;
12542;PMS3003;6337;49.556;25.594;2022-09-12T11:21:28;0.80;0.80;
12542;PMS3003;6337;49.556;25.594;2022-09-12T11:24:28;3.37;1.00;
12542;PMS3003;6337;49.556;25.594;2022-09-12T11:27:15;1.73;0.90;
12542;PMS3003;6337;49.556;25.594;2022-09-12T11:29:53;1.00;1.00;
12542;PMS3003;6337;49.556;25.594;2022-09-12T11:32:43;1.67;1.57;
12542;PMS3003;6337;49.556;25.594;2022-09-12T11:35:30;1.63;1.63;
12542;PMS3003;6337;49.556;25.594;2022-09-12T11:38:05;1.47;1.37;
12542;PMS3003;6337;49.556;25.594;2022-09-12T11:40:41;1.70;1.60;
12542;PMS3003;6337;49.556;25.594;2022-09-12T11:43:15;1.73;1.63;
12542;PMS3003;6337;49.556;25.594;2022-09-12T11:45:55;1.30;1.30;
12542;PMS3003;6337;49.556;25.594;2022-09-12T11:48:28;2.70;2.50;
12542;PMS3003;6337;49.556;25.594;2022-09-12T11:51:04;3.53;2.33;
12542;PMS3003;6337;49.556;25.594;2022-09-12T11:53:35;3.00;2.80;
12542;PMS3003;6337;49.556;25.594;2022-09-12T11:56:07;3.00;2.80;
12542;PMS3003;6337;49.556;25.594;2022-09-12T11:58:38;3.53;2.57;
12542;PMS3003;6337;49.556;25.594;2022-09-12T12:01:10;3.33;3.03;
12542;PMS3003;6337;49.556;25.594;2022-09-12T12:03:43;2.40;2.30;
12542;PMS3003;6337;49.556;25.594;2022-09-12T12:06:14;1.83;1.73;
12542;PMS3003;6337;49.556;25.594;2022-09-12T12:08:46;1.90;1.80;
12542;PMS3003;6337;49.556;25.594;2022-09-12T12:11:15;1.90;1.80;
12542;PMS3003;6337;49.556;25.594;2022-09-12T12:13:51;1.70;1.20;
12542;PMS3003;6337;49.556;25.594;2022-09-12T12:16:22;4.87;1.77;
12542;PMS3003;6337;49.556;25.594;2022-09-12T12:18:52;1.77;1.50;
12542;PMS3003;6337;49.556;25.594;2022-09-12T12:21:33;1.83;1.73;
12542;PMS3003;6337;49.556;25.594;2022-09-12T12:24:15;5.70;2.93;
12542;PMS3003;6337;49.556;25.594;2022-09-12T12:26:55;3.50;3.30;
12542;PMS3003;6337;49.556;25.594;2022-09-12T12:29:43;3.93;3.57;
12542;PMS3003;6337;49.556;25.594;2022-09-12T12:32:23;3.70;3.50;
12542;PMS3003;6337;49.556;25.594;2022-09-12T12:35:00;3.30;3.10;
12542;PMS3003;6337;49.556;25.594;2022-09-12T12:37:48;3.13;2.93;
12542;PMS3003;6337;49.556;25.594;2022-09-12T12:40:25;3.17;2.90;
12542;PMS3003;6337;49.556;25.594;2022-09-12T12:42:57;2.67;2.57;
12542;PMS3003;6337;49.556;25.594;2022-09-12T12:45:44;3.70;3.27;
12542;PMS3003;6337;49.556;25.594;2022-09-12T12:48:31;2.40;2.30;
12542;PMS3003;6337;49.556;25.594;2022-09-12T12:54:47;2.00;1.90;
12542;PMS3003;6337;49.556;25.594;2022-09-12T12:57:21;2.57;2.47;
12542;PMS3003;6337;49.556;25.594;2022-09-12T12:59:55;1.90;1.80;
12542;PMS3003;6337;49.556;25.594;2022-09-12T13:02:26;3.00;1.70;
12542;PMS3003;6337;49.556;25.594;2022-09-12T13:04:56;1.30;1.30;
12542;PMS3003;6337;49.556;25.594;2022-09-12T13:07:26;1.80;1.70;
12542;PMS3003;6337;49.556;25.594;2022-09-12T13:09:56;1.90;1.80;
12542;PMS3003;6337;49.556;25.594;2022-09-12T13:12:27;2.07;1.97;
12542;PMS3003;6337;49.556;25.594;2022-09-12T13:14:57;2.57;2.37;
12542;PMS3003;6337;49.556;25.594;2022-09-12T13:17:26;4.37;3.50;
12542;PMS3003;6337;49.556;25.594;2022-09-12T13:20:04;3.80;3.60;
12542;PMS3003;6337;49.556;25.594;2022-09-12T13:22:42;3.77;3.47;
12542;PMS3003;6337;49.556;25.594;2022-09-12T13:25:21;3.50;2.93;
12542;PMS3003;6337;49.556;25.594;2022-09-12T13:27:59;3.43;3.13;
12542;PMS3003;6337;49.556;25.594;2022-09-12T13:30:32;3.20;3.00;
12542;PMS3003;6337;49.556;25.594;2022-09-12T13:33:08;3.13;3.00;
12542;PMS3003;6337;49.556;25.594;2022-09-12T13:35:45;4.00;3.70;
12542;PMS3003;6337;49.556;25.594;2022-09-12T13:38:46;3.43;3.13;
12542;PMS3003;6337;49.556;25.594;2022-09-12T13:41:22;2.70;2.50;
12542;PMS3003;6337;49.556;25.594;2022-09-12T13:43:59;3.33;3.13;
12542;PMS3003;6337;49.556;25.594;2022-09-12T13:46:29;3.70;3.50;
12542;PMS3003;6337;49.556;25.594;2022-09-12T13:48:57;4.10;3.80;
12542;PMS3003;6337;49.556;25.594;2022-09-12T13:51:25;7.80;4.60;
12542;PMS3003;6337;49.556;25.594;2022-09-12T13:53:56;4.17;3.80;
12542;PMS3003;6337;49.556;25.594;2022-09-12T13:56:24;3.17;2.97;
12542;PMS3003;6337;49.556;25.594;2022-09-12T13:58:52;4.03;3.73;
12542;PMS3003;6337;49.556;25.594;2022-09-12T14:01:22;9.60;4.10;
12542;PMS3003;6337;49.556;25.594;2022-09-12T14:03:51;4.13;3.83;
12542;PMS3003;6337;49.556;25.594;2022-09-12T14:06:41;4.90;4.50;
12542;PMS3003;6337;49.556;25.594;2022-09-12T14:09:13;4.50;4.20;
12542;PMS3003;6337;49.556;25.594;2022-09-12T14:11:41;3.97;3.67;
12542;PMS3003;6337;49.556;25.594;2022-09-12T14:14:19;6.40;5.80;
12542;PMS3003;6337;49.556;25.594;2022-09-12T14:16:55;4.77;4.47;
12542;PMS3003;6337;49.556;25.594;2022-09-12T14:19:22;7.67;4.73;
12542;PMS3003;6337;49.556;25.594;2022-09-12T14:21:53;8.03;5.40;
12542;PMS3003;6337;49.556;25.594;2022-09-12T14:24:21;6.03;5.53;
12542;PMS3003;6337;49.556;25.594;2022-09-12T14:26:50;5.30;4.80;
12542;PMS3003;6337;49.556;25.594;2022-09-12T14:29:18;5.27;4.87;
12542;PMS3003;6337;49.556;25.594;2022-09-12T14:32:00;5.77;5.27;
12542;PMS3003;6337;49.556;25.594;2022-09-12T14:34:28;6.60;4.77;
12542;PMS3003;6337;49.556;25.594;2022-09-12T14:36:56;6.07;5.47;
12542;PMS3003;6337;49.556;25.594;2022-09-12T14:39:27;6.20;5.60;
12542;PMS3003;6337;49.556;25.594;2022-09-12T14:42:00;6.83;5.90;
12542;PMS3003;6337;49.556;25.594;2022-09-12T14:44:35;5.03;4.53;
12542;PMS3003;6337;49.556;25.594;2022-09-12T14:47:12;5.47;5.07;
12542;PMS3003;6337;49.556;25.594;2022-09-12T14:49:43;6.10;5.50;
12542;PMS3003;6337;49.556;25.594;2022-09-12T14:52:20;6.17;5.63;
12542;PMS3003;6337;49.556;25.594;2022-09-12T14:54:55;5.37;4.97;
12542;PMS3003;6337;49.556;25.594;2022-09-12T14:57:30;10.70;5.87;
12542;PMS3003;6337;49.556;25.594;2022-09-12T15:00:18;7.90;5.90;
12542;PMS3003;6337;49.556;25.594;2022-09-12T15:02:49;7.87;6.20;
12542;PMS3003;6337;49.556;25.594;2022-09-12T15:05:18;7.70;7.00;
12542;PMS3003;6337;49.556;25.594;2022-09-12T15:07:56;5.97;5.47;
12542;PMS3003;6337;49.556;25.594;2022-09-12T15:10:25;6.80;5.20;
12542;PMS3003;6337;49.556;25.594;2022-09-12T15:15:51;5.80;5.30;
12542;PMS3003;6337;49.556;25.594;2022-09-12T15:18:24;7.40;6.80;
12542;PMS3003;6337;49.556;25.594;2022-09-12T15:20:55;7.93;6.80;
12542;PMS3003;6337;49.556;25.594;2022-09-12T15:23:34;11.20;6.57;
12542;PMS3003;6337;49.556;25.594;2022-09-12T15:26:04;7.37;6.67;
12542;PMS3003;6337;49.556;25.594;2022-09-12T15:28:34;7.63;6.87;
12542;PMS3003;6337;49.556;25.594;2022-09-12T15:31:03;8.40;7.57;
12542;PMS3003;6337;49.556;25.594;2022-09-12T15:33:34;11.27;9.97;
12542;PMS3003;6337;49.556;25.594;2022-09-12T15:36:01;11.80;10.57;
12542;PMS3003;6337;49.556;25.594;2022-09-12T15:38:29;9.50;8.27;
12542;PMS3003;6337;49.556;25.594;2022-09-12T15:40:57;8.63;7.80;
12542;PMS3003;6337;49.556;25.594;2022-09-12T15:43:25;9.23;8.27;
12542;PMS3003;6337;49.556;25.594;2022-09-12T15:45:52;8.10;7.20;
12542;PMS3003;6337;49.556;25.594;2022-09-12T15:48:20;8.20;7.40;
12542;PMS3003;6337;49.556;25.594;2022-09-12T15:50:49;9.07;8.17;
12542;PMS3003;6337;49.556;25.594;2022-09-12T15:53:17;9.87;8.93;
12542;PMS3003;6337;49.556;25.594;2022-09-12T15:55:45;9.43;7.93;
12542;PMS3003;6337;49.556;25.594;2022-09-12T15:58:14;7.70;7.00;
12542;PMS3003;6337;49.556;25.594;2022-09-12T16:00:45;9.87;7.90;
12542;PMS3003;6337;49.556;25.594;2022-09-12T16:03:16;8.27;6.97;
12542;PMS3003;6337;49.556;25.594;2022-09-12T16:05:47;6.63;6.00;
12542;PMS3003;6337;49.556;25.594;2022-09-12T16:08:16;9.93;7.53;